Time;durP1;ratioP1;P1;durP2;ratioP2;P2;SDS_P1;SDS_P2;PMS_P1;PMS_P2;Temp;Humidity;BMP_temperature;BMP_pressure;BME280_temperature;BME280_humidity;BME280_pressure;Samples;Min_cycle;Max_cycle;Signal;HPM_P1;HPM_P2
2021/07/17 00:01:37;;;;;;;8.10;2.55;;;;;;;17.79;58.92;95913.19;5034455;28;20052;-64
2021/07/17 00:04:03;;;;;;;10.90;3.00;;;;;;;17.79;58.93;95915.84;5034400;28;20021;-64
2021/07/17 00:06:29;;;;;;;2.92;2.25;;;;;;;17.65;58.49;95909.00;5034275;28;20071;-64
2021/07/17 00:08:56;;;;;;;3.17;2.50;;;;;;;17.62;59.00;95903.94;5034339;28;20537;-64
2021/07/17 00:11:22;;;;;;;4.70;2.90;;;;;;;17.64;58.98;95917.03;5033825;28;20025;-64
2021/07/17 00:13:48;;;;;;;7.03;2.75;;;;;;;17.68;59.43;95910.56;5034253;28;20033;-64
2021/07/17 00:16:15;;;;;;;6.63;2.45;;;;;;;17.67;59.52;95907.06;5033983;28;20494;-64
2021/07/17 00:18:41;;;;;;;8.10;3.20;;;;;;;17.56;59.53;95907.06;5034058;28;20040;-64
2021/07/17 00:21:06;;;;;;;6.65;2.58;;;;;;;17.57;60.05;95914.00;5034052;28;20479;-64
2021/07/17 00:23:32;;;;;;;7.28;3.08;;;;;;;17.49;60.08;95909.31;5034046;28;20075;-64
2021/07/17 00:25:58;;;;;;;3.35;2.50;;;;;;;17.32;58.80;95909.75;5033999;28;20080;-64
2021/07/17 00:28:25;;;;;;;5.07;2.63;;;;;;;17.38;60.03;95904.84;5033786;28;20479;-64
2021/07/17 00:30:51;;;;;;;3.72;2.83;;;;;;;17.38;59.58;95911.94;5033914;28;20200;-64
2021/07/17 00:33:17;;;;;;;3.10;2.42;;;;;;;17.41;59.21;95912.56;5033699;28;20550;-64
2021/07/17 00:35:43;;;;;;;8.40;3.20;;;;;;;17.47;59.91;95911.25;5033907;28;20410;-64
2021/07/17 00:38:08;;;;;;;4.97;2.40;;;;;;;17.43;59.94;95905.34;5033677;28;20026;-64
2021/07/17 00:40:34;;;;;;;5.93;3.63;;;;;;;17.41;60.02;95901.97;5033649;28;20025;-64
2021/07/17 00:43:00;;;;;;;5.40;2.80;;;;;;;17.45;60.94;95907.84;5033690;28;20426;-64
2021/07/17 00:45:25;;;;;;;6.90;2.80;;;;;;;17.35;60.15;95901.59;5033634;28;20029;-64
2021/07/17 00:47:51;;;;;;;3.90;2.70;;;;;;;17.35;60.54;95901.59;5033743;28;20433;-64
2021/07/17 00:50:19;;;;;;;9.63;2.75;;;;;;;17.36;61.01;95900.63;5033206;28;20018;-64
2021/07/17 00:52:46;;;;;;;5.80;2.50;;;;;;;17.32;60.58;95902.66;5033585;28;20417;-64
2021/07/17 00:55:12;;;;;;;4.93;2.65;;;;;;;17.17;60.83;95900.22;5033411;28;20021;-64
2021/07/17 00:57:40;;;;;;;5.22;2.88;;;;;;;17.12;61.60;95893.59;5033370;28;20530;-64
2021/07/17 01:00:10;;;;;;;4.82;2.47;;;;;;;17.10;61.47;95885.78;5033432;28;20022;-64
2021/07/17 01:02:45;;;;;;;5.32;3.10;;;;;;;17.03;61.84;95889.81;5033335;28;20059;-64
2021/07/17 01:05:11;;;;;;;6.57;2.80;;;;;;;17.00;62.35;95882.97;5033359;28;20044;-64
2021/07/17 01:07:38;;;;;;;6.63;2.40;;;;;;;16.97;61.93;95880.53;5033328;28;20025;-64
2021/07/17 01:10:06;;;;;;;4.82;2.90;;;;;;;16.94;62.25;95878.13;5033215;28;20025;-64
2021/07/17 01:12:31;;;;;;;3.65;2.95;;;;;;;16.91;62.64;95878.34;5033277;28;20479;-64
2021/07/17 01:14:57;;;;;;;3.80;3.00;;;;;;;16.91;62.85;95871.28;5033177;28;20036;-64
2021/07/17 01:17:23;;;;;;;5.97;2.67;;;;;;;16.97;62.85;95867.34;5033196;28;20353;-64
2021/07/17 01:19:48;;;;;;;7.50;3.47;;;;;;;16.93;62.71;95865.88;5033132;28;20353;-64
2021/07/17 01:22:14;;;;;;;4.15;2.75;;;;;;;16.93;62.92;95860.59;5033168;28;20029;-64
2021/07/17 01:24:43;;;;;;;3.90;2.70;;;;;;;16.80;62.84;95861.50;5032122;28;20048;-64
2021/07/17 01:27:12;;;;;;;8.40;3.42;;;;;;;16.82;62.92;95868.50;5032906;28;20021;-64
2021/07/17 01:29:39;;;;;;;5.07;2.97;;;;;;;16.79;63.43;95869.53;5032967;28;20562;-64
2021/07/17 01:32:05;;;;;;;5.72;3.17;;;;;;;16.76;63.29;95869.75;5032950;28;20056;-64
2021/07/17 01:34:30;;;;;;;10.23;4.05;;;;;;;16.68;63.33;95867.72;5032927;28;20014;-64
2021/07/17 01:36:56;;;;;;;5.53;3.00;;;;;;;16.67;63.55;95863.38;5033015;28;20353;-64
2021/07/17 01:39:22;;;;;;;7.47;2.95;;;;;;;16.67;63.29;95866.84;5032874;28;20025;-64
2021/07/17 01:41:48;;;;;;;5.63;3.35;;;;;;;16.67;62.84;95864.22;5032878;28;20017;-64
2021/07/17 01:44:14;;;;;;;8.85;3.30;;;;;;;16.68;63.89;95863.25;5032825;28;20033;-64
2021/07/17 01:46:39;;;;;;;9.07;3.90;;;;;;;16.78;63.75;95862.59;5032968;28;20036;-64
2021/07/17 01:49:05;;;;;;;4.97;2.72;;;;;;;16.71;62.99;95864.00;5032848;28;20387;-63
2021/07/17 01:51:30;;;;;;;5.72;2.95;;;;;;;16.64;63.59;95860.94;5032620;28;20491;-64
2021/07/17 01:53:56;;;;;;;5.50;2.90;;;;;;;16.68;63.91;95867.72;5032823;28;20028;-64
2021/07/17 01:56:24;;;;;;;5.82;2.78;;;;;;;16.67;63.33;95858.09;5032688;28;20497;-64
2021/07/17 01:58:50;;;;;;;4.68;3.30;;;;;;;16.68;63.72;95857.16;5032785;28;20029;-64
2021/07/17 02:01:16;;;;;;;4.90;2.60;;;;;;;16.62;64.01;95854.97;5032735;28;20017;-64
2021/07/17 02:03:46;;;;;;;3.90;2.70;;;;;;;16.54;63.81;95858.16;5032786;28;20029;-64
2021/07/17 02:06:13;;;;;;;5.00;3.33;;;;;;;16.51;64.31;95856.59;5032715;28;20125;-64
2021/07/17 02:08:41;;;;;;;3.95;2.85;;;;;;;16.51;63.50;95863.66;5032732;28;20108;-64
2021/07/17 02:11:07;;;;;;;5.32;3.20;;;;;;;16.47;63.69;95860.41;5032567;28;20029;-64
2021/07/17 02:13:33;;;;;;;3.67;2.85;;;;;;;16.42;64.09;95863.38;5032821;28;20471;-63
2021/07/17 02:15:59;;;;;;;3.95;3.08;;;;;;;16.40;64.12;95865.28;5032687;28;20026;-64
2021/07/17 02:18:31;;;;;;;6.32;3.05;;;;;;;16.32;63.60;95862.38;5032461;28;20026;-64
2021/07/17 02:20:58;;;;;;;4.78;3.40;;;;;;;16.38;64.27;95855.78;5032578;28;20029;-64
2021/07/17 02:23:24;;;;;;;4.00;2.88;;;;;;;16.42;64.29;95855.47;5032552;28;20029;-64
2021/07/17 02:25:49;;;;;;;6.10;3.08;;;;;;;16.36;63.40;95849.78;5032562;28;20105;-64
2021/07/17 02:28:15;;;;;;;4.53;3.00;;;;;;;16.33;63.44;95847.34;5032497;28;20024;-64
2021/07/17 02:30:40;;;;;;;7.15;3.38;;;;;;;16.34;63.34;95857.78;5032493;28;20033;-64
2021/07/17 02:33:06;;;;;;;3.63;2.90;;;;;;;16.33;63.21;95853.47;5032546;28;20045;-64
2021/07/17 02:35:32;;;;;;;5.22;2.80;;;;;;;16.22;63.77;95863.97;5034356;28;20381;-64
2021/07/17 02:37:57;;;;;;;3.67;2.90;;;;;;;16.22;63.72;95859.53;5035929;28;20017;-64
2021/07/17 02:40:23;;;;;;;5.82;2.97;;;;;;;16.22;63.41;95864.81;5035929;28;20031;-63
2021/07/17 02:42:48;;;;;;;7.20;3.25;;;;;;;16.26;63.29;95857.53;5035948;28;20033;-63
2021/07/17 02:45:14;;;;;;;6.00;3.42;;;;;;;16.31;63.57;95855.38;5035950;28;20037;-63
2021/07/17 02:47:40;;;;;;;7.20;3.35;;;;;;;16.37;63.41;95856.72;5035925;28;20467;-63
2021/07/17 02:50:06;;;;;;;4.80;3.20;;;;;;;16.36;63.47;95862.97;5035858;28;20036;-64
2021/07/17 02:52:31;;;;;;;4.10;3.05;;;;;;;16.42;63.58;95862.53;5035506;28;20088;-64
2021/07/17 02:54:57;;;;;;;8.52;2.85;;;;;;;16.42;63.70;95854.59;5035697;28;20053;-63
2021/07/17 02:57:23;;;;;;;7.10;3.20;;;;;;;16.44;63.84;95850.06;5035542;28;20028;-64
2021/07/17 02:59:48;;;;;;;5.00;2.90;;;;;;;16.37;63.65;95851.44;5035559;28;20060;-64
2021/07/17 03:02:14;;;;;;;3.00;2.53;;;;;;;16.33;64.10;95850.84;5035478;28;20101;-64
2021/07/17 03:04:39;;;;;;;4.55;3.33;;;;;;;16.33;63.63;95847.34;5035499;28;20083;-64
2021/07/17 03:07:05;;;;;;;4.40;3.10;;;;;;;16.36;63.42;95845.34;5035487;28;20028;-64
2021/07/17 03:09:31;;;;;;;8.73;2.83;;;;;;;16.41;63.36;95848.47;5035480;28;20480;-64
2021/07/17 03:11:56;;;;;;;4.97;3.08;;;;;;;16.46;63.37;95844.69;5035266;28;20033;-63
2021/07/17 03:14:22;;;;;;;4.20;3.13;;;;;;;16.52;63.19;95845.06;5035347;28;20075;-64
2021/07/17 03:16:47;;;;;;;5.78;3.70;;;;;;;16.49;62.58;95844.44;5035204;28;20379;-64
2021/07/17 03:19:13;;;;;;;4.35;2.72;;;;;;;16.61;62.77;95850.59;5035192;28;20025;-64
2021/07/17 03:21:39;;;;;;;3.33;2.95;;;;;;;16.67;62.93;95842.25;5035300;28;20022;-64
2021/07/17 03:24:05;;;;;;;9.80;3.13;;;;;;;16.70;62.58;95849.94;5035016;28;20095;-64
2021/07/17 03:26:31;;;;;;;8.40;3.15;;;;;;;16.78;62.46;95844.09;5035090;28;20034;-63
2021/07/17 03:28:57;;;;;;;3.65;3.00;;;;;;;16.78;62.37;95844.09;5035103;28;20435;-64
2021/07/17 03:31:30;;;;;;;3.67;2.85;;;;;;;16.84;62.69;95842.78;5035013;28;20384;-64
2021/07/17 03:33:57;;;;;;;7.45;3.15;;;;;;;16.87;62.59;95842.56;5034978;28;20030;-64
2021/07/17 03:36:23;;;;;;;8.63;3.33;;;;;;;16.93;63.08;95845.59;5034852;28;20083;-64
2021/07/17 03:38:49;;;;;;;8.20;3.10;;;;;;;16.98;62.33;95852.34;5034898;28;20022;-64
2021/07/17 03:41:16;;;;;;;4.65;3.20;;;;;;;17.08;62.19;95848.06;5034933;28;20026;-63
2021/07/17 03:43:41;;;;;;;8.20;3.28;;;;;;;17.30;62.90;95847.28;5034910;28;20103;-64
2021/07/17 03:46:07;;;;;;;7.75;3.17;;;;;;;17.57;62.37;95847.09;5033961;28;20471;-64
2021/07/17 03:48:32;;;;;;;6.50;2.92;;;;;;;17.87;61.47;95840.34;5034487;28;20036;-63
2021/07/17 03:50:58;;;;;;;3.55;2.80;;;;;;;18.23;60.52;95840.22;5034396;28;20482;-64
2021/07/17 03:53:23;;;;;;;4.93;2.83;;;;;;;18.68;59.18;95840.09;5034627;28;20367;-64
2021/07/17 03:55:49;;;;;;;2.85;2.50;;;;;;;19.11;57.94;95852.59;5034501;28;20029;-64
2021/07/17 03:58:15;;;;;;;4.88;2.92;;;;;;;19.54;57.65;95840.16;5034457;28;20091;-64
2021/07/17 04:00:40;;;;;;;3.38;3.00;;;;;;;19.99;56.73;95841.63;5034480;28;20025;-64
2021/07/17 04:03:06;;;;;;;7.32;2.72;;;;;;;20.41;55.80;95843.28;5034337;28;20025;-64
2021/07/17 04:05:31;;;;;;;4.03;2.53;;;;;;;20.82;54.94;95834.38;5034466;28;20026;-64
2021/07/17 04:07:57;;;;;;;3.03;2.72;;;;;;;21.21;54.20;95839.69;5034408;28;20039;-64
2021/07/17 04:10:23;;;;;;;6.55;2.60;;;;;;;21.65;53.52;95837.50;5034136;28;20109;-64
2021/07/17 04:12:49;;;;;;;3.22;2.67;;;;;;;22.05;52.33;95841.72;5034185;28;20060;-64
2021/07/17 04:15:15;;;;;;;4.90;2.70;;;;;;;22.42;51.48;95839.13;5034262;28;20029;-64
2021/07/17 04:17:41;;;;;;;6.88;2.80;;;;;;;22.82;50.68;95837.06;5034261;28;20372;-64
2021/07/17 04:20:08;;;;;;;4.57;2.40;;;;;;;23.21;50.68;95835.91;5034077;28;20033;-64
2021/07/17 04:22:34;;;;;;;3.22;2.78;;;;;;;23.61;49.18;95839.03;5034026;28;20445;-64
2021/07/17 04:25:01;;;;;;;5.60;2.75;;;;;;;23.98;48.30;95842.38;5033965;28;20026;-64
2021/07/17 04:27:26;;;;;;;5.28;2.92;;;;;;;24.35;47.58;95835.06;5033826;28;20022;-64
2021/07/17 04:29:52;;;;;;;6.43;2.80;;;;;;;24.73;47.69;95832.81;5033938;28;20036;-64
2021/07/17 04:32:17;;;;;;;5.03;2.50;;;;;;;25.07;47.26;95833.69;5034042;28;20511;-64
2021/07/17 04:34:43;;;;;;;5.45;2.58;;;;;;;25.41;46.74;95833.69;5033886;28;20352;-64
2021/07/17 04:37:08;;;;;;;5.80;2.88;;;;;;;25.69;45.64;95827.97;5033680;28;20631;-64
2021/07/17 04:39:34;;;;;;;3.92;2.38;;;;;;;26.01;45.40;95822.69;5033667;28;20022;-63
2021/07/17 04:42:00;;;;;;;4.53;2.42;;;;;;;26.26;45.03;95826.09;5033830;28;20499;-64
2021/07/17 04:44:25;;;;;;;7.15;2.92;;;;;;;26.53;44.90;95823.13;5033703;28;20030;-64
2021/07/17 04:46:51;;;;;;;11.80;2.60;;;;;;;26.79;43.25;95828.16;5033732;28;20026;-64
2021/07/17 04:49:16;;;;;;;6.55;2.40;;;;;;;27.07;43.08;95832.19;5033625;28;20045;-64
2021/07/17 04:51:42;;;;;;;6.70;2.70;;;;;;;27.28;42.19;95830.69;5033322;28;20038;-64
2021/07/17 04:54:07;;;;;;;4.20;2.47;;;;;;;27.49;41.46;95822.78;5033472;28;20045;-64
2021/07/17 04:56:33;;;;;;;4.82;2.60;;;;;;;27.75;40.09;95820.66;5033293;28;20073;-64
2021/07/17 04:58:58;;;;;;;3.88;2.90;;;;;;;28.02;39.70;95830.97;5033194;28;20025;-64
2021/07/17 05:01:24;;;;;;;3.15;2.50;;;;;;;28.25;42.50;95828.16;5033297;28;20040;-64
2021/07/17 05:03:50;;;;;;;3.33;2.20;;;;;;;28.50;40.13;95830.53;5033425;28;20025;-63
2021/07/17 05:06:15;;;;;;;4.75;2.97;;;;;;;28.69;38.54;95829.13;5033448;28;20545;-64
2021/07/17 05:08:41;;;;;;;3.95;2.58;;;;;;;28.93;39.50;95821.75;5033311;28;20048;-64
2021/07/17 05:11:06;;;;;;;6.32;2.30;;;;;;;29.20;40.02;95819.25;5033157;28;20025;-64
2021/07/17 05:13:32;;;;;;;4.47;2.75;;;;;;;29.43;39.30;95818.22;5033140;28;20056;-64
2021/07/17 05:15:58;;;;;;;7.57;2.53;;;;;;;29.68;38.13;95815.13;5033132;28;20021;-64
2021/07/17 05:18:24;;;;;;;3.20;2.40;;;;;;;29.85;37.96;95812.94;5033096;28;20032;-64
2021/07/17 05:20:49;;;;;;;5.45;2.72;;;;;;;30.10;40.60;95815.13;5033198;28;20026;-64
2021/07/17 05:23:16;;;;;;;4.80;2.53;;;;;;;30.36;40.63;95810.91;5033015;28;20083;-63
2021/07/17 05:25:43;;;;;;;3.83;2.47;;;;;;;30.54;41.13;95816.75;5033045;28;20030;-63
2021/07/17 05:28:08;;;;;;;2.92;2.20;;;;;;;30.73;41.48;95815.19;5033086;28;20049;-64
2021/07/17 05:30:34;;;;;;;4.07;2.22;;;;;;;30.98;39.17;95815.47;5033144;28;20490;-64
2021/07/17 05:33:00;;;;;;;3.85;2.50;;;;;;;31.26;39.83;95819.00;5033168;28;20483;-64
2021/07/17 05:35:28;;;;;;;5.47;2.65;;;;;;;31.45;37.15;95817.34;5032947;28;20018;-64
2021/07/17 05:37:58;;;;;;;6.03;2.65;;;;;;;31.65;34.18;95824.63;5032897;28;20037;-64
2021/07/17 05:40:24;;;;;;;14.45;3.05;;;;;;;31.69;34.59;95815.03;5033051;28;20068;-64
2021/07/17 05:42:50;;;;;;;6.32;3.13;;;;;;;31.82;35.69;95821.47;5032987;28;20117;-64
2021/07/17 05:45:16;;;;;;;4.80;2.75;;;;;;;31.98;36.83;95809.41;5032917;28;20033;-64
2021/07/17 05:47:42;;;;;;;8.13;3.70;;;;;;;32.25;36.98;95810.16;5032815;28;20064;-64
2021/07/17 05:50:08;;;;;;;5.85;2.85;;;;;;;32.46;36.53;95813.59;5032832;28;20026;-64
2021/07/17 05:52:34;;;;;;;7.88;3.22;;;;;;;32.78;35.03;95810.94;5032725;28;20062;-64
2021/07/17 05:55:00;;;;;;;10.60;2.78;;;;;;;32.98;35.74;95804.56;5032730;28;20052;-64
2021/07/17 05:57:26;;;;;;;6.00;3.50;;;;;;;33.21;35.92;95805.91;5032904;28;20017;-65
2021/07/17 05:59:51;;;;;;;11.88;2.90;;;;;;;33.40;32.58;95804.06;5032844;28;20384;-64
2021/07/17 06:02:17;;;;;;;5.20;2.47;;;;;;;33.43;33.32;95807.38;5032718;28;20082;-64
2021/07/17 06:04:44;;;;;;;7.65;2.38;;;;;;;33.56;33.27;95807.28;5032710;28;20373;-64
2021/07/17 06:07:10;;;;;;;2.97;2.67;;;;;;;33.70;33.78;95799.00;5032837;28;20029;-64
2021/07/17 06:09:35;;;;;;;4.82;2.10;;;;;;;33.93;33.50;95800.25;5033211;28;20407;-64
2021/07/17 06:12:01;;;;;;;12.27;2.70;;;;;;;34.01;34.34;95811.63;5036639;28;20387;-64
2021/07/17 06:14:27;;;;;;;8.20;2.47;;;;;;;33.95;33.05;95803.56;5036613;28;20028;-64
2021/07/17 06:16:52;;;;;;;7.35;2.38;;;;;;;33.94;33.07;95802.72;5036373;28;20384;-64
2021/07/17 06:19:18;;;;;;;8.20;2.85;;;;;;;34.04;28.71;95796.81;5036299;28;20026;-64
2021/07/17 06:21:44;;;;;;;10.18;2.40;;;;;;;33.81;28.95;95800.16;5036446;28;20100;-64
2021/07/17 06:24:09;;;;;;;7.57;2.92;;;;;;;33.69;32.70;95794.66;5036294;28;20053;-64
2021/07/17 06:26:35;;;;;;;9.55;2.60;;;;;;;33.44;31.41;95788.22;5036187;28;20097;-64
2021/07/17 06:29:01;;;;;;;9.45;2.90;;;;;;;33.57;31.13;95786.41;5036081;28;20104;-64
2021/07/17 06:31:26;;;;;;;5.30;2.85;;;;;;;33.56;28.95;95782.03;5036347;28;20357;-64
2021/07/17 06:33:52;;;;;;;3.35;2.33;;;;;;;33.54;29.19;95782.25;5036158;28;20036;-64
2021/07/17 06:36:18;;;;;;;4.00;2.42;;;;;;;33.43;30.89;95780.31;5036075;28;20079;-64
2021/07/17 06:38:44;;;;;;;4.32;2.60;;;;;;;33.49;29.43;95785.63;5035804;28;20025;-64
2021/07/17 06:41:10;;;;;;;3.92;2.30;;;;;;;33.56;29.05;95785.59;5035913;28;20025;-65
2021/07/17 06:43:36;;;;;;;11.40;3.35;;;;;;;33.39;30.06;95786.16;5035950;28;20013;-64
2021/07/17 06:46:03;;;;;;;11.00;2.92;;;;;;;33.37;27.89;95782.84;5035984;28;20045;-65
2021/07/17 06:48:29;;;;;;;9.23;3.00;;;;;;;33.33;29.06;95776.22;5035864;28;20022;-64
2021/07/17 06:50:55;;;;;;;9.02;2.58;;;;;;;33.41;30.36;95770.50;5035497;28;20061;-64
2021/07/17 06:53:21;;;;;;;9.15;2.65;;;;;;;33.53;30.65;95775.19;5035676;28;20112;-64
2021/07/17 06:55:47;;;;;;;9.77;2.72;;;;;;;33.53;28.41;95773.28;5035708;28;20475;-64
2021/07/17 06:58:13;;;;;;;7.00;2.83;;;;;;;33.67;28.88;95775.91;5035489;28;20522;-64
2021/07/17 07:00:39;;;;;;;3.78;2.40;;;;;;;33.44;28.35;95782.78;5035574;28;20037;-64
2021/07/17 07:03:04;;;;;;;8.13;3.05;;;;;;;33.29;29.10;95780.41;5035433;28;20025;-64
2021/07/17 07:05:30;;;;;;;10.23;3.03;;;;;;;32.92;31.88;95775.66;5035580;28;20025;-64
2021/07/17 07:07:55;;;;;;;9.13;2.50;;;;;;;33.00;30.51;95766.44;5035497;28;20047;-64
2021/07/17 07:10:21;;;;;;;11.02;2.50;;;;;;;33.08;30.78;95768.91;5035462;28;20025;-64
2021/07/17 07:12:47;;;;;;;5.22;2.22;;;;;;;33.31;29.73;95772.06;5035530;28;20025;-64
2021/07/17 07:15:13;;;;;;;5.00;2.85;;;;;;;33.49;30.50;95771.25;5035274;28;20462;-64
2021/07/17 07:17:39;;;;;;;8.25;2.55;;;;;;;33.68;29.83;95776.75;5035192;28;20041;-64
2021/07/17 07:20:08;;;;;;;9.45;2.55;;;;;;;33.71;28.52;95774.41;5035257;28;20049;-64
2021/07/17 07:22:33;;;;;;;7.15;2.92;;;;;;;33.65;29.98;95764.47;5035398;28;20033;-64
2021/07/17 07:24:59;;;;;;;6.72;2.80;;;;;;;33.69;29.04;95760.25;5035162;28;20510;-64
2021/07/17 07:27:25;;;;;;;8.52;2.40;;;;;;;33.65;30.51;95767.19;5035141;28;20073;-64
2021/07/17 07:29:51;;;;;;;5.32;2.45;;;;;;;33.61;28.59;95764.09;5035011;28;20067;-64
2021/07/17 07:32:16;;;;;;;6.53;2.60;;;;;;;33.74;28.45;95776.66;5035054;28;20104;-64
2021/07/17 07:34:42;;;;;;;9.18;2.45;;;;;;;33.98;30.98;95765.16;5035063;28;20032;-64
2021/07/17 07:37:08;;;;;;;8.95;3.08;;;;;;;34.33;31.51;95767.25;5034880;28;20061;-64
2021/07/17 07:39:33;;;;;;;8.43;2.70;;;;;;;34.81;30.28;95766.59;5035025;28;20037;-65
2021/07/17 07:41:59;;;;;;;11.38;3.38;;;;;;;35.08;26.85;95767.03;5034687;28;20024;-65
2021/07/17 07:44:24;;;;;;;8.82;3.28;;;;;;;35.33;28.24;95757.06;5034985;28;20021;-65
2021/07/17 07:46:50;;;;;;;14.80;3.67;;;;;;;35.65;27.67;95759.41;5034808;28;20115;-64
2021/07/17 07:49:16;;;;;;;9.30;3.40;;;;;;;35.20;26.66;95760.81;5034778;28;20033;-65
2021/07/17 07:51:42;;;;;;;9.30;3.80;;;;;;;34.60;27.96;95756.03;5034345;28;20121;-65
2021/07/17 07:54:08;;;;;;;8.60;3.55;;;;;;;34.72;28.74;95756.09;5034510;28;20026;-65
2021/07/17 07:56:33;;;;;;;10.68;3.78;;;;;;;34.78;28.50;95747.03;5033363;28;20376;-64
2021/07/17 07:58:59;;;;;;;14.98;4.05;;;;;;;34.66;26.83;95746.16;5034532;28;20044;-65
2021/07/17 08:01:25;;;;;;;10.73;3.50;;;;;;;34.53;26.59;95750.69;5034515;28;20041;-65
2021/07/17 08:03:50;;;;;;;6.43;3.10;;;;;;;34.62;27.04;95748.50;5034284;28;20485;-64
2021/07/17 08:06:16;;;;;;;3.28;2.53;;;;;;;34.40;26.80;95743.56;5034262;28;20024;-64
2021/07/17 08:08:42;;;;;;;7.55;2.80;;;;;;;34.29;28.07;95750.59;5034196;28;20021;-65
2021/07/17 08:11:07;;;;;;;8.95;2.88;;;;;;;33.70;27.99;95753.78;5034414;28;20045;-65
2021/07/17 08:13:33;;;;;;;11.20;2.80;;;;;;;33.60;28.93;95746.19;5034284;28;20018;-65
2021/07/17 08:16:01;;;;;;;4.15;2.60;;;;;;;33.59;28.35;95739.06;5034145;28;20083;-64
2021/07/17 08:18:27;;;;;;;4.38;2.40;;;;;;;33.73;27.89;95734.34;5033967;28;20064;-64
2021/07/17 08:20:53;;;;;;;8.55;2.70;;;;;;;33.47;27.47;95732.72;5034185;28;20117;-64
2021/07/17 08:23:19;;;;;;;8.77;3.00;;;;;;;33.46;29.71;95737.31;5033997;28;20035;-64
2021/07/17 08:25:44;;;;;;;6.00;3.00;;;;;;;33.47;28.33;95732.72;5034042;28;20088;-64
2021/07/17 08:28:10;;;;;;;8.50;2.85;;;;;;;33.13;28.23;95731.16;5034034;28;20488;-64
2021/07/17 08:30:37;;;;;;;8.13;2.78;;;;;;;33.35;30.06;95738.06;5034005;28;20388;-64
2021/07/17 08:33:04;;;;;;;12.23;3.00;;;;;;;33.72;31.52;95731.88;5033483;28;20018;-64
2021/07/17 08:35:31;;;;;;;6.50;3.20;;;;;;;33.81;28.31;95727.81;5033845;28;20026;-65
2021/07/17 08:37:57;;;;;;;6.13;2.42;;;;;;;34.01;29.51;95721.31;5033730;28;20030;-65
2021/07/17 08:40:23;;;;;;;5.45;2.85;;;;;;;33.64;28.28;95728.41;5033631;28;20033;-65
2021/07/17 08:42:52;;;;;;;5.00;2.78;;;;;;;33.72;29.35;95727.28;5033757;28;20026;-65
2021/07/17 08:45:20;;;;;;;3.75;2.53;;;;;;;33.77;28.09;95715.78;5033673;28;20049;-64
2021/07/17 08:47:47;;;;;;;6.97;2.78;;;;;;;33.96;27.91;95713.88;5033799;28;20030;-65
2021/07/17 08:50:18;;;;;;;7.95;3.08;;;;;;;34.35;27.60;95715.47;5033636;28;20104;-65
2021/07/17 08:52:44;;;;;;;4.05;2.92;;;;;;;34.49;28.20;95727.78;5033597;28;20029;-64
2021/07/17 08:55:11;;;;;;;10.18;3.10;;;;;;;34.15;27.24;95724.69;5033594;28;20448;-64
2021/07/17 08:57:45;;;;;;;6.32;2.47;;;;;;;33.76;27.67;95723.06;5033400;28;20033;-65
2021/07/17 09:00:18;;;;;;;10.38;3.15;;;;;;;33.97;27.34;95720.09;5033800;28;20068;-64
2021/07/17 09:02:45;;;;;;;4.95;2.92;;;;;;;34.07;27.79;95720.38;5033581;28;20057;-64
2021/07/17 09:05:15;;;;;;;5.38;2.80;;;;;;;33.97;28.24;95718.22;5033455;28;20021;-64
2021/07/17 09:07:41;;;;;;;7.07;2.90;;;;;;;34.31;28.74;95708.84;5033554;28;20021;-64
2021/07/17 09:10:39;;;;;;;3.45;2.60;;;;;;;34.43;26.54;95706.19;5033408;28;20259;-65
2021/07/17 09:13:26;;;;;;;5.28;3.17;;;;;;;34.43;26.64;95707.00;5033471;28;20025;-64
2021/07/17 09:15:53;;;;;;;5.80;3.13;;;;;;;34.26;29.31;95718.53;5033204;28;20112;-65
2021/07/17 09:18:46;;;;;;;13.32;3.38;;;;;;;34.07;27.98;95714.16;5033009;28;20029;-64
2021/07/17 09:21:21;;;;;;;6.63;2.90;;;;;;;33.88;28.12;95714.16;5033290;28;20045;-64
2021/07/17 09:23:59;;;;;;;4.05;2.60;;;;;;;34.14;28.99;95712.22;5041021;28;20040;-64
2021/07/17 09:26:30;;;;;;;8.30;3.00;;;;;;;33.71;28.13;95711.25;5053042;28;20394;-64
2021/07/17 09:29:00;;;;;;;5.95;2.70;;;;;;;33.62;30.15;95705.31;5052970;28;20017;-65
2021/07/17 09:31:29;;;;;;;5.47;2.78;;;;;;;33.90;29.64;95707.47;5052869;28;20017;-65
2021/07/17 09:34:13;;;;;;;9.95;3.25;;;;;;;33.87;26.84;95705.22;5052888;28;20112;-64
2021/07/17 09:37:07;;;;;;;7.22;2.80;;;;;;;33.86;28.87;95713.59;5052880;28;20410;-66
2021/07/17 09:39:44;;;;;;;6.05;2.70;;;;;;;33.30;28.33;95708.09;5053238;28;20032;-64
2021/07/17 09:42:14;;;;;;;9.60;2.72;;;;;;;33.13;29.62;95703.25;5050248;28;20025;-67
2021/07/17 09:44:42;;;;;;;9.48;2.80;;;;;;;32.95;28.47;95707.53;5053049;28;20033;-67
2021/07/17 09:47:20;;;;;;;9.70;3.00;;;;;;;33.14;29.27;95696.81;5051851;28;20530;-63
2021/07/17 09:49:46;;;;;;;6.82;2.40;;;;;;;33.27;27.88;95685.84;5043224;28;20183;-67
2021/07/17 09:52:14;;;;;;;4.80;2.60;;;;;;;33.38;29.93;95705.91;5041300;28;20041;-66
2021/07/17 09:55:00;;;;;;;6.88;2.55;;;;;;;33.37;28.28;95698.00;5040612;28;20029;-64
2021/07/17 09:57:33;;;;;;;3.78;2.35;;;;;;;33.14;29.41;95705.72;5049451;28;20025;-67
2021/07/17 10:00:05;;;;;;;5.50;2.53;;;;;;;33.23;28.06;95708.16;5040869;28;20121;-66
2021/07/17 10:02:31;;;;;;;7.30;2.53;;;;;;;32.83;28.06;95704.72;5053571;28;20025;-64
2021/07/17 10:04:56;;;;;;;11.38;2.80;;;;;;;32.85;28.93;95707.22;5056565;28;20036;-67
2021/07/17 10:07:22;;;;;;;3.30;2.40;;;;;;;32.97;29.79;95712.72;5044369;28;20061;-67
2021/07/17 10:09:51;;;;;;;7.07;2.60;;;;;;;32.91;28.26;95706.34;5054413;28;20086;-64
2021/07/17 10:12:16;;;;;;;7.88;2.38;;;;;;;33.00;28.40;95696.88;5056661;28;20486;-66
2021/07/17 10:14:42;;;;;;;4.97;2.20;;;;;;;33.19;29.76;95710.47;5056409;28;20033;-66
2021/07/17 10:17:14;;;;;;;4.18;2.30;;;;;;;33.06;27.00;95702.47;5050937;28;20484;-65
2021/07/17 10:19:41;;;;;;;5.88;2.10;;;;;;;33.20;28.21;95706.72;5036202;28;20125;-64
2021/07/17 10:22:09;;;;;;;4.20;2.03;;;;;;;33.35;26.94;95710.97;5036235;28;20044;-64
2021/07/17 10:24:35;;;;;;;4.32;2.28;;;;;;;33.20;27.85;95716.75;5048284;28;20210;-65
2021/07/17 10:27:01;;;;;;;5.15;2.20;;;;;;;32.94;28.78;95735.66;5041113;28;20038;-64
2021/07/17 10:29:27;;;;;;;3.33;2.25;;;;;;;32.71;30.59;95706.50;5048578;28;20033;-66
2021/07/17 10:31:56;;;;;;;8.50;2.50;;;;;;;32.64;29.65;95704.66;5056121;28;20029;-66
2021/07/17 10:34:22;;;;;;;6.95;2.15;;;;;;;32.35;29.48;95716.91;5056289;28;20368;-65
2021/07/17 10:36:55;;;;;;;9.02;2.47;;;;;;;32.11;29.83;95712.03;5055107;28;20029;-65
2021/07/17 10:39:27;;;;;;;8.82;2.50;;;;;;;31.99;29.75;95711.06;5036677;28;20033;-65
2021/07/17 10:41:54;;;;;;;4.50;2.63;;;;;;;32.13;30.16;95707.25;5036112;28;20121;-65
2021/07/17 10:44:47;;;;;;;7.05;2.50;;;;;;;31.97;30.57;95705.88;5036700;28;20021;-64
2021/07/17 10:47:14;;;;;;;7.95;2.20;;;;;;;31.97;31.08;95702.31;5046735;28;20026;-64
2021/07/17 10:49:58;;;;;;;6.05;2.38;;;;;;;32.22;32.98;95707.81;5055314;28;20032;-64
2021/07/17 10:52:42;;;;;;;5.28;2.08;;;;;;;32.16;29.51;95695.16;5039607;28;20128;-67
2021/07/17 10:55:26;;;;;;;10.10;2.67;;;;;;;31.90;30.78;95708.53;5047986;28;20072;-66
2021/07/17 10:57:53;;;;;;;8.48;2.47;;;;;;;31.97;29.76;95710.44;5050647;28;20059;-64
2021/07/17 11:00:47;;;;;;;4.78;2.40;;;;;;;31.78;30.64;95702.97;5034471;28;20471;-66
2021/07/17 11:03:21;;;;;;;9.18;2.58;;;;;;;31.69;30.24;95708.84;5035502;28;20148;-63
2021/07/17 11:05:49;;;;;;;11.23;2.38;;;;;;;31.75;30.64;95707.97;5034337;28;20164;-64
2021/07/17 11:08:36;;;;;;;10.23;2.28;;;;;;;31.78;31.22;95708.38;5042009;28;20013;-63
2021/07/17 11:11:27;;;;;;;7.18;2.60;;;;;;;31.77;30.77;95712.16;5054029;28;20039;-63
2021/07/17 11:14:16;;;;;;;5.95;2.60;;;;;;;31.80;34.32;95702.78;5034509;28;20040;-62
2021/07/17 11:16:45;;;;;;;4.93;2.45;;;;;;;31.69;30.14;95709.66;5042035;28;20137;-64
2021/07/17 11:19:24;;;;;;;17.40;2.80;;;;;;;31.66;33.02;95726.28;5045561;28;20044;-65
2021/07/17 11:21:50;;;;;;;4.65;2.55;;;;;;;31.64;32.60;95701.38;5036640;28;20041;-66
2021/07/17 11:24:16;;;;;;;11.57;2.30;;;;;;;31.84;32.17;95695.88;5053806;28;20036;-64
2021/07/17 11:26:42;;;;;;;11.02;2.65;;;;;;;31.82;31.80;95706.09;5053894;28;20021;-64
2021/07/17 11:29:10;;;;;;;8.30;2.63;;;;;;;31.85;31.44;95692.16;5046074;28;20479;-66
2021/07/17 11:31:44;;;;;;;4.72;2.50;;;;;;;31.78;31.96;95691.34;5034047;28;20029;-64
2021/07/17 11:34:14;;;;;;;6.95;2.63;;;;;;;31.90;32.27;95713.13;5034024;28;20026;-64